Time;durP1;ratioP1;P1;durP2;ratioP2;P2;SDS_P1;SDS_P2;PMS_P1;PMS_P2;Temp;Humidity;BMP_temperature;BMP_pressure;BME280_temperature;BME280_humidity;BME280_pressure;Samples;Min_cycle;Max_cycle;Signal;HPM_P1;HPM_P2
2021/03/07 00:00:50;;;;;;;20.17;8.18;;;;;;;-142.13;100.00;58370.81;4963074;28;20201;-72
2021/03/07 00:03:17;;;;;;;18.23;7.55;;;;;;;-142.13;100.00;58370.81;4971396;28;20240;-73
2021/03/07 00:05:44;;;;;;;20.08;8.43;;;;;;;-142.13;100.00;58370.81;4972653;28;20271;-70
2021/03/07 00:08:11;;;;;;;17.60;9.43;;;;;;;-142.13;100.00;58370.81;4973953;28;20735;-70
2021/03/07 00:10:38;;;;;;;20.52;9.00;;;;;;;-142.13;100.00;58370.81;4972140;28;20193;-70
2021/03/07 00:13:05;;;;;;;24.67;8.57;;;;;;;-142.13;100.00;58370.81;4962016;28;20908;-69
2021/03/07 00:15:32;;;;;;;23.77;9.25;;;;;;;-142.13;100.00;58370.81;4965630;28;20194;-70
2021/03/07 00:17:59;;;;;;;15.52;8.00;;;;;;;-142.13;100.00;58370.81;4963840;28;20230;-70
2021/03/07 00:20:26;;;;;;;17.33;8.70;;;;;;;-142.13;100.00;58370.81;4971904;28;20212;-70
2021/03/07 00:22:53;;;;;;;16.38;8.18;;;;;;;-142.13;100.00;58370.81;4963250;28;20767;-69
2021/03/07 00:25:20;;;;;;;18.27;8.57;;;;;;;-142.13;100.00;58370.81;4961847;28;20624;-69
2021/03/07 00:27:47;;;;;;;19.05;8.45;;;;;;;-142.13;100.00;58370.81;4967468;28;20685;-70
2021/03/07 00:30:17;;;;;;;19.42;8.57;;;;;;;-142.13;100.00;58370.81;4974845;28;20189;-69
2021/03/07 00:32:45;;;;;;;18.27;8.68;;;;;;;-142.13;100.00;58370.81;4967948;28;20615;-69
2021/03/07 00:35:13;;;;;;;14.32;7.40;;;;;;;-142.13;100.00;58370.81;4970622;28;20181;-69
2021/03/07 00:37:41;;;;;;;13.90;6.90;;;;;;;-142.13;100.00;58370.81;4968035;28;20299;-71
2021/03/07 00:40:09;;;;;;;14.32;5.68;;;;;;;-142.13;100.00;58370.81;4966259;28;20197;-71
2021/03/07 00:42:36;;;;;;;9.65;5.85;;;;;;;-142.13;100.00;58370.81;4963163;28;20218;-70
2021/03/07 00:45:06;;;;;;;10.80;6.20;;;;;;;-142.13;100.00;58370.81;4973834;28;20637;-73
2021/03/07 00:47:33;;;;;;;14.10;6.28;;;;;;;-142.13;100.00;58370.81;4968059;28;20603;-70
2021/03/07 00:50:01;;;;;;;9.80;5.25;;;;;;;-142.13;100.00;58370.81;4963264;28;20217;-72
2021/03/07 00:52:28;;;;;;;7.30;4.85;;;;;;;-142.13;100.00;58370.81;4971569;28;20660;-69
2021/03/07 00:54:55;;;;;;;8.60;4.90;;;;;;;-142.13;100.00;58370.81;4973968;28;20178;-71
2021/03/07 00:57:22;;;;;;;8.75;5.15;;;;;;;-142.13;100.00;58370.81;4968314;28;20230;-71
2021/03/07 00:59:49;;;;;;;9.90;5.45;;;;;;;-142.13;100.00;58370.81;4962442;28;20579;-70
2021/03/07 01:02:16;;;;;;;9.27;5.28;;;;;;;-142.13;100.00;58370.81;4971512;28;20939;-70
2021/03/07 01:04:44;;;;;;;10.13;5.57;;;;;;;-142.13;100.00;58370.81;4961175;28;20735;-71
2021/03/07 01:07:11;;;;;;;9.55;5.00;;;;;;;-142.13;100.00;58370.81;4970705;28;20718;-69
2021/03/07 01:09:38;;;;;;;14.57;5.70;;;;;;;-142.13;100.00;58370.81;4971651;28;20243;-68
2021/03/07 01:12:06;;;;;;;14.13;5.90;;;;;;;-142.13;100.00;58370.81;4963541;28;20229;-70
2021/03/07 01:14:33;;;;;;;19.00;6.60;;;;;;;-142.13;100.00;58370.81;4974784;28;20622;-70
2021/03/07 01:17:01;;;;;;;18.13;6.90;;;;;;;-142.13;100.00;58370.81;4962564;28;20684;-70
2021/03/07 01:19:28;;;;;;;26.20;6.20;;;;;;;-142.13;100.00;58370.81;4961299;28;20586;-70
2021/03/07 01:21:56;;;;;;;10.02;5.60;;;;;;;-142.13;100.00;58370.81;4960304;28;20272;-70
2021/03/07 01:24:23;;;;;;;15.27;6.88;;;;;;;-142.13;100.00;58370.81;4962642;28;20181;-70
2021/03/07 01:26:50;;;;;;;9.13;5.30;;;;;;;-142.13;100.00;58370.81;4962169;28;20225;-69
2021/03/07 01:29:17;;;;;;;9.00;5.13;;;;;;;-142.13;100.00;58370.81;4964712;28;20527;-69
2021/03/07 01:31:44;;;;;;;13.20;6.55;;;;;;;-142.13;100.00;58370.81;4963140;28;20632;-70
2021/03/07 01:34:11;;;;;;;14.98;5.00;;;;;;;-142.13;100.00;58370.81;4973421;28;20208;-70
2021/03/07 01:36:38;;;;;;;7.40;4.75;;;;;;;-142.13;100.00;58370.81;4966998;28;20638;-70
2021/03/07 01:39:06;;;;;;;8.85;5.20;;;;;;;-142.13;100.00;58370.81;4968181;28;20612;-71
2021/03/07 01:41:33;;;;;;;11.80;5.60;;;;;;;-142.13;100.00;58370.81;4971606;28;20194;-69
2021/03/07 01:44:00;;;;;;;10.18;5.20;;;;;;;-142.13;100.00;58370.81;4970186;28;20192;-70
2021/03/07 01:46:27;;;;;;;12.07;5.63;;;;;;;-142.13;100.00;58370.81;4962315;28;20197;-70
2021/03/07 01:48:55;;;;;;;15.32;5.80;;;;;;;-142.13;100.00;58370.81;4966453;28;20683;-70
2021/03/07 01:51:22;;;;;;;9.25;5.50;;;;;;;-142.13;100.00;58370.81;4973461;28;20571;-69
2021/03/07 01:53:49;;;;;;;13.50;5.93;;;;;;;-142.13;100.00;58370.81;4964815;28;20227;-69
2021/03/07 01:56:18;;;;;;;10.02;5.50;;;;;;;-142.13;100.00;58370.81;4970057;28;20583;-69
2021/03/07 01:58:48;;;;;;;12.23;6.45;;;;;;;-142.13;100.00;58370.81;4968491;28;20297;-72
2021/03/07 02:01:15;;;;;;;14.02;6.40;;;;;;;-142.13;100.00;58370.81;4960789;28;20197;-71
2021/03/07 02:03:52;;;;;;;9.15;5.88;;;;;;;-142.13;100.00;58370.81;4965661;28;20587;-71
2021/03/07 02:06:19;;;;;;;13.25;6.45;;;;;;;-142.13;100.00;58370.81;4971288;28;20187;-70
2021/03/07 02:08:46;;;;;;;12.38;6.50;;;;;;;-142.13;100.00;58370.81;4964262;28;20594;-71
2021/03/07 02:11:13;;;;;;;10.70;6.18;;;;;;;-142.13;100.00;58370.81;4971225;28;20271;-70
2021/03/07 02:13:43;;;;;;;16.48;6.47;;;;;;;-142.13;100.00;58370.81;4971087;28;20324;-71
2021/03/07 02:16:14;;;;;;;12.30;5.95;;;;;;;-142.13;100.00;58370.81;4965105;28;20699;-69
2021/03/07 02:18:44;;;;;;;13.07;6.10;;;;;;;-142.13;100.00;58370.81;4966910;28;20211;-70
2021/03/07 02:21:15;;;;;;;9.98;5.38;;;;;;;-142.13;100.00;58370.81;4963846;28;20566;-69
2021/03/07 02:24:01;;;;;;;10.75;5.82;;;;;;;-142.13;100.00;58370.81;4960811;28;20267;-70
2021/03/07 02:26:29;;;;;;;9.77;5.55;;;;;;;-142.13;100.00;58370.81;4966750;28;20190;-69
2021/03/07 02:28:56;;;;;;;6.22;4.22;;;;;;;-142.13;100.00;58370.81;4971829;28;20203;-70
2021/03/07 02:31:25;;;;;;;11.80;5.20;;;;;;;-142.13;100.00;58370.81;4961086;28;20684;-70
2021/03/07 02:33:59;;;;;;;9.40;4.82;;;;;;;-142.13;100.00;58370.81;4966151;28;20673;-69
2021/03/07 02:36:31;;;;;;;37.60;5.03;;;;;;;-142.13;100.00;58370.81;4972969;28;20538;-70
2021/03/07 02:39:01;;;;;;;7.10;4.13;;;;;;;-142.13;100.00;58370.81;4959178;28;20609;-70
2021/03/07 02:41:31;;;;;;;11.10;4.80;;;;;;;-142.13;100.00;58370.81;4961789;28;20190;-71
2021/03/07 02:44:00;;;;;;;8.70;4.88;;;;;;;-142.13;100.00;58370.81;4963612;28;20627;-69
2021/03/07 02:46:30;;;;;;;8.40;4.85;;;;;;;-142.13;100.00;58370.81;4971392;28;20245;-69
2021/03/07 02:48:59;;;;;;;8.70;5.10;;;;;;;-142.13;100.00;58370.81;4962914;28;20686;-69
2021/03/07 02:51:29;;;;;;;22.58;6.45;;;;;;;-142.13;100.00;58370.81;4970882;28;20695;-71
2021/03/07 02:53:57;;;;;;;8.80;4.45;;;;;;;-142.13;100.00;58370.81;4970039;28;20195;-72
2021/03/07 02:56:29;;;;;;;8.13;4.35;;;;;;;-142.13;100.00;58370.81;4968189;28;20200;-71
2021/03/07 02:58:59;;;;;;;11.38;4.05;;;;;;;-142.13;100.00;58370.81;4968228;28;20211;-72
2021/03/07 03:01:28;;;;;;;7.57;4.80;;;;;;;-142.13;100.00;58370.81;4964675;28;20189;-72
2021/03/07 03:03:55;;;;;;;6.30;3.60;;;;;;;-142.13;100.00;58370.81;4965242;28;20573;-73
2021/03/07 03:06:24;;;;;;;8.30;4.75;;;;;;;-142.13;100.00;58370.81;4972653;28;20196;-71
2021/03/07 03:08:53;;;;;;;8.13;4.25;;;;;;;-142.13;100.00;58370.81;4964217;28;20350;-71
2021/03/07 03:11:24;;;;;;;7.88;4.28;;;;;;;-142.13;100.00;58370.81;4972399;28;20612;-71
2021/03/07 03:13:52;;;;;;;9.60;4.30;;;;;;;-142.13;100.00;58370.81;4977936;28;20266;-72
2021/03/07 03:16:23;;;;;;;6.82;4.55;;;;;;;-142.13;100.00;58370.81;4977164;28;20186;-72
2021/03/07 03:18:51;;;;;;;5.70;3.53;;;;;;;-142.13;100.00;58370.81;4979523;28;20297;-72
2021/03/07 03:21:18;;;;;;;9.95;4.00;;;;;;;-142.13;100.00;58370.81;4966651;28;20797;-74
2021/03/07 03:23:46;;;;;;;6.65;3.72;;;;;;;-142.13;100.00;58370.81;4972897;28;20231;-72
2021/03/07 03:26:13;;;;;;;11.93;4.32;;;;;;;-142.13;100.00;58370.81;4976983;28;20255;-72
2021/03/07 03:28:41;;;;;;;6.07;3.70;;;;;;;-142.13;100.00;58370.81;4974027;28;20280;-73
2021/03/07 03:31:08;;;;;;;7.88;3.83;;;;;;;-142.13;100.00;58370.81;4963057;28;20568;-70
2021/03/07 03:33:35;;;;;;;8.32;3.85;;;;;;;-142.13;100.00;58370.81;4969525;28;20306;-71
2021/03/07 03:36:03;;;;;;;9.45;4.70;;;;;;;-142.13;100.00;58370.81;4973890;28;20658;-71
2021/03/07 03:38:35;;;;;;;8.32;4.80;;;;;;;-142.13;100.00;58370.81;4974295;28;20708;-69
2021/03/07 03:41:04;;;;;;;9.35;4.40;;;;;;;-142.13;100.00;58370.81;4969582;28;20187;-71
2021/03/07 03:43:50;;;;;;;7.40;4.55;;;;;;;-142.13;100.00;58370.81;4964361;28;20857;-72
2021/03/07 03:46:19;;;;;;;5.90;4.00;;;;;;;-142.13;100.00;58370.81;4963520;28;20204;-71
2021/03/07 03:48:51;;;;;;;5.40;3.72;;;;;;;-142.13;100.00;58370.81;4963478;28;20282;-69
2021/03/07 03:51:19;;;;;;;7.55;4.28;;;;;;;-142.13;100.00;58370.81;4969283;28;20213;-70
2021/03/07 03:53:49;;;;;;;9.98;4.93;;;;;;;-142.13;100.00;58370.81;4966962;28;20663;-71
2021/03/07 03:56:17;;;;;;;6.35;3.70;;;;;;;-142.13;100.00;58370.81;4983972;28;20566;-69
2021/03/07 03:58:46;;;;;;;8.80;3.67;;;;;;;-142.13;100.00;58370.81;4965050;28;20219;-71
2021/03/07 04:01:19;;;;;;;7.53;3.72;;;;;;;-142.13;100.00;58370.81;4971885;28;20680;-70
2021/03/07 04:03:49;;;;;;;6.50;3.70;;;;;;;-142.13;100.00;58370.81;4967830;28;20793;-70
2021/03/07 04:06:21;;;;;;;6.90;3.88;;;;;;;-142.13;100.00;58370.81;4975001;28;20212;-69
2021/03/07 04:08:49;;;;;;;5.65;3.40;;;;;;;-142.13;100.00;58370.81;4972753;28;20292;-70
2021/03/07 04:11:16;;;;;;;8.48;3.85;;;;;;;-142.13;100.00;58370.81;4969751;28;20910;-69
2021/03/07 04:13:44;;;;;;;7.47;3.65;;;;;;;-142.13;100.00;58370.81;4973878;28;20688;-71
2021/03/07 04:16:13;;;;;;;5.43;3.38;;;;;;;-142.13;100.00;58370.81;4968103;28;20511;-71
2021/03/07 04:18:42;;;;;;;8.85;4.35;;;;;;;-142.13;100.00;58370.81;4968093;28;20679;-71
2021/03/07 04:21:10;;;;;;;8.05;4.57;;;;;;;-142.13;100.00;58370.81;4972396;28;20204;-70
2021/03/07 04:23:37;;;;;;;9.27;4.15;;;;;;;-142.13;100.00;58370.81;4967838;28;20290;-73
2021/03/07 04:26:04;;;;;;;6.50;3.70;;;;;;;-142.13;100.00;58370.81;4971904;28;20267;-70
2021/03/07 04:28:32;;;;;;;8.63;4.45;;;;;;;-142.13;100.00;58370.81;4967912;28;20224;-69
2021/03/07 04:30:59;;;;;;;9.18;4.05;;;;;;;-142.13;100.00;58370.81;4962802;28;20200;-70
2021/03/07 04:33:27;;;;;;;13.32;3.80;;;;;;;-142.13;100.00;58370.81;4967416;28;20674;-70
2021/03/07 04:35:55;;;;;;;6.85;4.05;;;;;;;-142.13;100.00;58370.81;4974028;28;20725;-70
2021/03/07 04:38:24;;;;;;;8.25;5.05;;;;;;;-142.13;100.00;58370.81;4973770;28;20821;-69
2021/03/07 04:40:51;;;;;;;9.85;5.53;;;;;;;-142.13;100.00;58370.81;4973003;28;20608;-70
2021/03/07 04:43:19;;;;;;;12.10;5.32;;;;;;;-142.13;100.00;58370.81;4966505;28;20758;-71
2021/03/07 04:45:46;;;;;;;12.45;4.80;;;;;;;-142.13;100.00;58370.81;4981160;28;20196;-71
2021/03/07 04:48:13;;;;;;;8.52;3.70;;;;;;;-142.13;100.00;58370.81;4972517;28;20227;-71
2021/03/07 04:50:41;;;;;;;10.57;3.85;;;;;;;-142.13;100.00;58370.81;4963437;28;20645;-70
2021/03/07 04:53:09;;;;;;;7.38;4.20;;;;;;;-142.13;100.00;58370.81;4963247;28;20686;-69
2021/03/07 04:55:36;;;;;;;7.10;4.40;;;;;;;-142.13;100.00;58370.81;4972450;28;20768;-69
2021/03/07 04:58:03;;;;;;;7.47;3.88;;;;;;;-142.13;100.00;58370.81;4969941;28;20313;-69
2021/03/07 05:00:30;;;;;;;8.07;3.70;;;;;;;-142.13;100.00;58370.81;4961471;28;20520;-70
2021/03/07 05:02:57;;;;;;;9.85;3.90;;;;;;;-142.13;100.00;58370.81;4961515;28;20645;-69
2021/03/07 05:05:24;;;;;;;7.60;4.25;;;;;;;-142.13;100.00;58370.81;4971396;28;20827;-69
2021/03/07 05:07:53;;;;;;;8.90;4.40;;;;;;;-142.13;100.00;58370.81;4972921;28;20638;-69
2021/03/07 05:10:21;;;;;;;10.70;3.70;;;;;;;-142.13;100.00;58370.81;4973690;28;20206;-70
2021/03/07 05:12:48;;;;;;;9.32;4.68;;;;;;;-142.13;100.00;58370.81;4968673;28;20235;-69
2021/03/07 05:15:15;;;;;;;16.20;4.50;;;;;;;-142.13;100.00;58370.81;4975214;28;20203;-72
2021/03/07 05:17:42;;;;;;;7.90;4.30;;;;;;;-142.13;100.00;58370.81;4967884;28;20704;-70
2021/03/07 05:20:11;;;;;;;7.22;4.18;;;;;;;-142.13;100.00;58370.81;4961917;28;20195;-71
2021/03/07 05:22:38;;;;;;;9.00;3.95;;;;;;;-142.13;100.00;58370.81;4967305;28;20278;-71
2021/03/07 05:25:06;;;;;;;7.15;4.18;;;;;;;-142.13;100.00;58370.81;4966964;28;20707;-70
2021/03/07 05:27:34;;;;;;;6.65;3.38;;;;;;;-142.13;100.00;58370.81;4969336;28;20245;-71
2021/03/07 05:30:00;;;;;;;9.23;4.63;;;;;;;-142.13;100.00;58370.81;4974326;28;20624;-71
2021/03/07 05:32:27;;;;;;;11.82;4.65;;;;;;;-142.13;100.00;58370.81;4974372;28;20592;-71
2021/03/07 05:34:55;;;;;;;7.18;4.10;;;;;;;-142.13;100.00;58370.81;4961696;28;20729;-70
2021/03/07 05:37:21;;;;;;;7.07;3.65;;;;;;;-142.13;100.00;58370.81;4960438;28;20282;-70
2021/03/07 05:39:48;;;;;;;9.20;4.85;;;;;;;-142.13;100.00;58370.81;4972382;28;20197;-71
2021/03/07 05:42:15;;;;;;;8.25;4.15;;;;;;;-142.13;100.00;58370.81;4972964;28;20220;-71
2021/03/07 05:44:44;;;;;;;16.27;3.83;;;;;;;-142.13;100.00;58370.81;4973144;28;20196;-72
2021/03/07 05:47:16;;;;;;;9.15;5.38;;;;;;;-142.13;100.00;58370.81;4967638;28;20616;-72
2021/03/07 05:49:43;;;;;;;6.07;4.03;;;;;;;-142.13;100.00;58370.81;4985535;28;20228;-72
2021/03/07 05:52:10;;;;;;;9.10;4.40;;;;;;;-142.13;100.00;58370.81;4961079;28;20212;-72
2021/03/07 05:54:38;;;;;;;7.70;4.80;;;;;;;-142.13;100.00;58370.81;4964005;28;20677;-72
2021/03/07 05:57:07;;;;;;;7.03;3.92;;;;;;;-142.13;100.00;58370.81;4960994;28;20558;-71
2021/03/07 05:59:35;;;;;;;7.80;4.70;;;;;;;-142.13;100.00;58370.81;4964558;28;20182;-71
2021/03/07 06:02:03;;;;;;;6.60;3.67;;;;;;;-142.13;100.00;58370.81;4984848;28;20232;-71
2021/03/07 06:04:31;;;;;;;6.13;3.55;;;;;;;-142.13;100.00;58370.81;4969221;28;20224;-71
2021/03/07 06:06:58;;;;;;;15.50;4.10;;;;;;;-142.13;100.00;58370.81;4971659;28;20668;-72
2021/03/07 06:09:27;;;;;;;7.32;4.18;;;;;;;-142.13;100.00;58370.81;4971822;28;20639;-72
2021/03/07 06:11:58;;;;;;;6.70;3.80;;;;;;;-142.13;100.00;58370.81;4973125;28;20639;-71
2021/03/07 06:14:28;;;;;;;8.95;3.97;;;;;;;-142.13;100.00;58370.81;4973057;28;20543;-71
2021/03/07 06:17:09;;;;;;;9.45;4.63;;;;;;;-142.13;100.00;58370.81;4967569;28;20224;-72
2021/03/07 06:19:57;;;;;;;8.73;4.75;;;;;;;-142.13;100.00;58370.81;4962593;28;20560;-72
2021/03/07 06:22:25;;;;;;;8.10;3.97;;;;;;;-142.13;100.00;58370.81;4959784;28;20283;-73
2021/03/07 06:24:53;;;;;;;9.75;4.10;;;;;;;-142.13;100.00;58370.81;4961670;28;20301;-72
2021/03/07 06:27:20;;;;;;;9.20;4.10;;;;;;;-142.13;100.00;58370.81;4966017;28;20316;-72
2021/03/07 06:29:58;;;;;;;10.02;4.40;;;;;;;-142.13;100.00;58370.81;4973900;28;20591;-71
2021/03/07 06:32:31;;;;;;;6.38;4.00;;;;;;;-142.13;100.00;58370.81;4974826;28;20317;-71
2021/03/07 06:34:59;;;;;;;11.77;4.85;;;;;;;-142.13;100.00;58370.81;4962164;28;20600;-71
2021/03/07 06:37:27;;;;;;;8.65;4.40;;;;;;;-142.13;100.00;58370.81;4978958;28;20218;-71
2021/03/07 06:39:54;;;;;;;10.93;4.25;;;;;;;-142.13;100.00;58370.81;4969636;28;20638;-71
2021/03/07 06:42:21;;;;;;;8.90;5.15;;;;;;;-142.13;100.00;58370.81;4963899;28;20221;-71
2021/03/07 06:44:54;;;;;;;5.90;4.28;;;;;;;-142.13;100.00;58370.81;4975806;28;20637;-72
2021/03/07 06:47:23;;;;;;;7.82;4.60;;;;;;;-142.13;100.00;58370.81;4977509;28;20220;-72
2021/03/07 06:50:06;;;;;;;9.07;5.20;;;;;;;-142.13;100.00;58370.81;4965562;28;20575;-71
2021/03/07 06:52:34;;;;;;;6.72;4.72;;;;;;;-142.13;100.00;58370.81;4966482;28;20230;-70
2021/03/07 06:55:03;;;;;;;7.43;4.15;;;;;;;-142.13;100.00;58370.81;4965466;28;20647;-71
2021/03/07 06:57:31;;;;;;;9.93;5.45;;;;;;;-142.13;100.00;58370.81;4972259;28;20601;-71
2021/03/07 06:59:58;;;;;;;8.40;4.60;;;;;;;-142.13;100.00;58370.81;4963693;28;20568;-70
2021/03/07 07:02:25;;;;;;;8.75;4.60;;;;;;;-142.13;100.00;58370.81;4973533;28;20857;-70
2021/03/07 07:04:53;;;;;;;17.83;6.30;;;;;;;-142.13;100.00;58370.81;4977488;28;20804;-72
2021/03/07 07:07:21;;;;;;;12.57;6.47;;;;;;;-142.13;100.00;58370.81;4979881;28;20305;-71
2021/03/07 07:09:58;;;;;;;11.13;5.63;;;;;;;-142.13;100.00;58370.81;4969814;28;20192;-73
2021/03/07 07:12:27;;;;;;;15.45;8.80;;;;;;;-142.13;100.00;58370.81;4976120;28;20572;-72
2021/03/07 07:15:09;;;;;;;13.18;7.65;;;;;;;-142.13;100.00;58370.81;4970863;28;20556;-71
2021/03/07 07:17:36;;;;;;;21.33;12.30;;;;;;;-142.13;100.00;58370.81;4967539;28;20226;-72
2021/03/07 07:20:08;;;;;;;22.35;12.20;;;;;;;-142.13;100.00;58370.81;4969002;28;20766;-72
2021/03/07 07:22:36;;;;;;;29.98;14.27;;;;;;;-142.13;100.00;58370.81;4975460;28;20609;-72
2021/03/07 07:25:05;;;;;;;25.30;13.07;;;;;;;-142.13;100.00;58370.81;4968433;28;20644;-72
2021/03/07 07:27:32;;;;;;;24.45;13.73;;;;;;;-142.13;100.00;58370.81;4969370;28;20692;-72
2021/03/07 07:29:59;;;;;;;22.73;12.77;;;;;;;-142.13;100.00;58370.81;4971497;28;20220;-71
2021/03/07 07:32:32;;;;;;;27.45;13.63;;;;;;;-142.13;100.00;58370.81;4967726;28;20755;-72
2021/03/07 07:35:03;;;;;;;26.77;14.57;;;;;;;-142.13;100.00;58370.81;4967786;28;20507;-71
2021/03/07 07:37:35;;;;;;;33.78;15.57;;;;;;;-142.13;100.00;58370.81;4966322;28;20282;-71
2021/03/07 07:40:04;;;;;;;23.43;13.30;;;;;;;-142.13;100.00;58370.81;4962981;28;20202;-71
2021/03/07 07:42:34;;;;;;;26.60;14.47;;;;;;;-142.13;100.00;58370.81;4970851;28;20464;-71
2021/03/07 07:45:18;;;;;;;23.20;11.30;;;;;;;-142.13;100.00;58370.81;4968409;28;20441;-71
2021/03/07 07:47:46;;;;;;;22.10;12.40;;;;;;;-142.13;100.00;58370.81;4964974;28;20459;-72
2021/03/07 07:50:34;;;;;;;20.17;10.43;;;;;;;-142.13;100.00;58370.81;4971201;28;20823;-72
2021/03/07 07:53:03;;;;;;;20.60;11.37;;;;;;;-142.13;100.00;58370.81;4970107;28;20504;-73
2021/03/07 07:55:45;;;;;;;22.03;12.73;;;;;;;-142.13;100.00;58370.81;4969918;28;20437;-72
2021/03/07 07:58:46;;;;;;;22.50;11.40;;;;;;;-142.13;100.00;58370.81;4966443;28;20464;-73
2021/03/07 08:01:49;;;;;;;21.77;9.90;;;;;;;-142.13;100.00;58370.81;4972565;28;20908;-73
2021/03/07 08:04:35;;;;;;;19.80;9.30;;;;;;;-142.13;100.00;58370.81;4951062;28;20488;-73
2021/03/07 08:07:04;;;;;;;17.97;7.30;;;;;;;-142.13;100.00;58370.81;4941642;28;20531;-74
2021/03/07 08:09:41;;;;;;;13.70;7.37;;;;;;;-142.13;100.00;58370.81;4952071;28;20540;-71
2021/03/07 08:12:44;;;;;;;15.47;8.27;;;;;;;-142.13;100.00;58370.81;4942932;28;20849;-73
2021/03/07 08:15:49;;;;;;;9.63;6.57;;;;;;;-142.13;100.00;58370.81;4940387;28;20996;-73
2021/03/07 08:18:19;;;;;;;10.03;6.03;;;;;;;-142.13;100.00;58370.81;4946605;28;20470;-74
2021/03/07 08:21:06;;;;;;;13.57;7.00;;;;;;;-142.13;100.00;58370.81;4927511;28;21050;-71
2021/03/07 08:23:55;;;;;;;12.10;6.60;;;;;;;-142.13;100.00;58370.81;4946618;28;20536;-74
2021/03/07 08:26:24;;;;;;;27.87;15.07;;;;;;;-142.13;100.00;58370.81;4953933;28;21161;-72
2021/03/07 08:28:51;;;;;;;13.17;8.70;;;;;;;-142.13;100.00;58370.81;4945599;28;20976;-74
2021/03/07 08:31:35;;;;;;;12.03;8.57;;;;;;;-142.13;100.00;58370.81;4976615;28;20461;-72
2021/03/07 08:34:21;;;;;;;14.47;7.80;;;;;;;-142.13;100.00;58370.81;4969262;28;20437;-72
2021/03/07 08:36:58;;;;;;;10.87;7.47;;;;;;;-142.13;100.00;58370.81;4965163;28;21038;-73
2021/03/07 08:39:26;;;;;;;13.73;8.73;;;;;;;-142.13;100.00;58370.81;4965187;28;20476;-72
2021/03/07 08:41:59;;;;;;;15.27;7.53;;;;;;;-142.13;100.00;58370.81;4965025;28;20549;-72
2021/03/07 08:44:27;;;;;;;12.50;7.60;;;;;;;-142.13;100.00;58370.81;4982312;28;20920;-74
2021/03/07 08:46:54;;;;;;;13.30;8.23;;;;;;;-142.13;100.00;58370.81;4971547;28;20464;-73
2021/03/07 08:49:24;;;;;;;14.30;8.70;;;;;;;-142.13;100.00;58370.81;4969688;28;20943;-73
2021/03/07 08:51:57;;;;;;;19.60;8.93;;;;;;;-142.13;100.00;58370.81;4966298;28;20463;-73
2021/03/07 08:54:26;;;;;;;14.23;8.97;;;;;;;-142.13;100.00;58370.81;4970771;28;20958;-73
2021/03/07 08:56:53;;;;;;;46.17;24.57;;;;;;;-142.13;100.00;58370.81;4970555;28;21193;-71
2021/03/07 08:59:26;;;;;;;22.70;13.40;;;;;;;-142.13;100.00;58370.81;4983605;28;20434;-72
2021/03/07 09:01:54;;;;;;;15.07;8.40;;;;;;;-142.13;100.00;58370.81;4961120;28;20511;-73
2021/03/07 09:04:22;;;;;;;13.23;7.60;;;;;;;-142.13;100.00;58370.81;4965691;28;20465;-71
2021/03/07 09:06:49;;;;;;;18.23;8.67;;;;;;;-142.13;100.00;58370.81;4965684;28;20444;-74
2021/03/07 09:09:17;;;;;;;12.83;8.00;;;;;;;-142.13;100.00;58370.81;4985181;28;20526;-73
2021/03/07 09:11:48;;;;;;;12.93;7.20;;;;;;;-142.13;100.00;58370.81;4972760;28;20426;-72
2021/03/07 09:14:17;;;;;;;13.50;7.87;;;;;;;-142.13;100.00;58370.81;4974323;28;21002;-71
2021/03/07 09:16:48;;;;;;;13.50;8.13;;;;;;;-142.13;100.00;58370.81;4969143;28;20911;-72
2021/03/07 09:19:23;;;;;;;16.53;8.23;;;;;;;-142.13;100.00;58370.81;4958425;28;20476;-71
2021/03/07 09:22:12;;;;;;;15.73;9.13;;;;;;;-142.13;100.00;58370.81;4967655;28;20840;-71
2021/03/07 09:24:49;;;;;;;15.73;9.27;;;;;;;-142.13;100.00;58370.81;4962391;28;20924;-73
2021/03/07 09:27:16;;;;;;;15.83;8.77;;;;;;;-142.13;100.00;58370.81;4965672;28;20584;-72
2021/03/07 09:29:54;;;;;;;14.07;7.70;;;;;;;-142.13;100.00;58370.81;4985365;28;21141;-71
2021/03/07 09:32:27;;;;;;;11.73;8.03;;;;;;;-142.13;100.00;58370.81;4965636;28;20513;-73
2021/03/07 09:34:54;;;;;;;15.77;8.80;;;;;;;-142.13;100.00;58370.81;4975962;28;20821;-73
2021/03/07 09:37:22;;;;;;;13.90;8.90;;;;;;;-142.13;100.00;58370.81;4966536;28;20453;-71
2021/03/07 09:39:50;;;;;;;13.27;8.47;;;;;;;-142.13;100.00;58370.81;4968398;28;20434;-72
2021/03/07 09:42:17;;;;;;;14.57;8.87;;;;;;;-142.13;100.00;58370.81;4961629;28;20844;-71
2021/03/07 09:44:45;;;;;;;12.90;8.60;;;;;;;-142.13;100.00;58370.81;4968141;28;20490;-73
2021/03/07 09:47:14;;;;;;;15.63;8.27;;;;;;;-142.13;100.00;58370.81;4971389;28;20975;-73
2021/03/07 09:49:44;;;;;;;16.13;9.17;;;;;;;-142.13;100.00;58370.81;4964808;28;20533;-73
2021/03/07 09:52:14;;;;;;;13.60;8.30;;;;;;;-142.13;100.00;58370.81;4966095;28;21149;-73
2021/03/07 09:54:57;;;;;;;89.47;45.33;;;;;;;-142.13;100.00;58370.81;4969745;28;20448;-71
2021/03/07 09:57:40;;;;;;;33.77;17.77;;;;;;;-142.13;100.00;58370.81;4973785;28;20467;-73
2021/03/07 10:00:08;;;;;;;14.10;8.90;;;;;;;-142.13;100.00;58370.81;4963375;28;20734;-72
2021/03/07 10:02:36;;;;;;;13.37;8.50;;;;;;;-142.13;100.00;58370.81;4966662;28;20881;-72
2021/03/07 10:05:12;;;;;;;13.10;8.60;;;;;;;-142.13;100.00;58370.81;4973240;28;20502;-72
2021/03/07 10:07:39;;;;;;;12.13;8.53;;;;;;;-142.13;100.00;58370.81;4967242;28;20838;-73
2021/03/07 10:10:10;;;;;;;12.50;8.80;;;;;;;-142.13;100.00;58370.81;4968545;28;20518;-72
2021/03/07 10:12:43;;;;;;;14.60;8.77;;;;;;;-142.13;100.00;58370.81;4973297;28;20543;-72
2021/03/07 10:15:27;;;;;;;14.20;8.40;;;;;;;-142.13;100.00;58370.81;4968845;28;20522;-72
2021/03/07 10:17:56;;;;;;;12.80;6.97;;;;;;;-142.13;100.00;58370.81;4966209;28;20843;-73
2021/03/07 10:20:32;;;;;;;12.10;6.67;;;;;;;-142.13;100.00;58370.81;4962737;28;20430;-72
2021/03/07 10:23:01;;;;;;;9.50;6.30;;;;;;;-142.13;100.00;58370.81;4963097;28;20465;-72
2021/03/07 10:25:31;;;;;;;10.60;6.43;;;;;;;-142.13;100.00;58370.81;4960392;28;20754;-71
2021/03/07 10:28:00;;;;;;;9.63;6.30;;;;;;;-142.13;100.00;58370.81;4962396;28;20515;-73
2021/03/07 10:30:36;;;;;;;10.10;7.17;;;;;;;-142.13;100.00;58370.81;4975461;28;20464;-73
2021/03/07 10:33:16;;;;;;;13.20;7.90;;;;;;;-142.13;100.00;58370.81;4967983;28;21072;-71
2021/03/07 10:36:06;;;;;;;9.77;7.13;;;;;;;-142.13;100.00;58370.81;4966584;28;20452;-73
2021/03/07 10:38:36;;;;;;;10.70;6.17;;;;;;;-142.13;100.00;58370.81;4969994;28;20949;-72
2021/03/07 10:41:24;;;;;;;8.97;6.60;;;;;;;-142.13;100.00;58370.81;4964705;28;20447;-73
2021/03/07 10:43:58;;;;;;;11.00;6.50;;;;;;;-142.13;100.00;58370.81;4971577;28;20450;-72
2021/03/07 10:46:27;;;;;;;13.17;6.83;;;;;;;-142.13;100.00;58370.81;4960660;28;20433;-73
2021/03/07 10:49:14;;;;;;;9.83;6.77;;;;;;;-142.13;100.00;58370.81;4960389;28;20460;-71
2021/03/07 10:51:42;;;;;;;10.73;7.30;;;;;;;-142.13;100.00;58370.81;4965985;28;20935;-72
2021/03/07 10:54:09;;;;;;;12.43;7.00;;;;;;;-142.13;100.00;58370.81;4961429;28;20966;-72
2021/03/07 10:56:40;;;;;;;10.67;7.63;;;;;;;-142.13;100.00;58370.81;4960389;28;20451;-72
2021/03/07 10:59:08;;;;;;;9.40;6.67;;;;;;;-142.13;100.00;58370.81;4966604;28;20975;-74
2021/03/07 11:01:34;;;;;;;11.40;7.77;;;;;;;-142.13;100.00;58370.81;4965920;28;20924;-72
2021/03/07 11:04:02;;;;;;;10.37;6.57;;;;;;;-142.13;100.00;58370.81;4965847;28;20498;-71
2021/03/07 11:06:29;;;;;;;9.10;7.10;;;;;;;-142.13;100.00;58370.81;4973875;28;20455;-74
2021/03/07 11:08:56;;;;;;;10.60;7.37;;;;;;;-142.13;100.00;58370.81;4967442;28;20773;-72
2021/03/07 11:11:23;;;;;;;15.47;7.30;;;;;;;-142.13;100.00;58370.81;4967352;28;20480;-73
2021/03/07 11:13:50;;;;;;;14.40;8.70;;;;;;;-142.13;100.00;58370.81;4973613;28;20461;-73
2021/03/07 11:16:17;;;;;;;12.13;7.80;;;;;;;-142.13;100.00;58370.81;4973004;28;20468;-71
2021/03/07 11:18:44;;;;;;;13.47;8.20;;;;;;;-142.13;100.00;58370.81;4971588;28;20461;-73